createdAt,value
2022-12-08T00:00:43.792Z,14.27
2022-12-08T00:03:13.702Z,13.83
2022-12-08T00:06:10.123Z,12.20
2022-12-08T00:11:41.541Z,12.90
2022-12-08T00:14:08.791Z,13.90
2022-12-08T00:16:45.373Z,14.30
2022-12-08T00:19:20.984Z,14.13
2022-12-08T00:21:49.336Z,13.90
2022-12-08T00:24:19.603Z,15.47
2022-12-08T00:26:53.151Z,15.03
2022-12-08T00:32:09.891Z,15.60
2022-12-08T00:34:38.373Z,14.27
2022-12-08T00:37:10.562Z,15.30
2022-12-08T00:39:38.153Z,15.80
2022-12-08T00:42:14.700Z,15.07
2022-12-08T00:44:55.567Z,15.07
2022-12-08T00:47:28.692Z,16.00
2022-12-08T00:49:55.950Z,14.53
2022-12-08T00:52:23.226Z,14.70
2022-12-08T00:54:51.179Z,14.43
2022-12-08T00:57:18.435Z,15.07
2022-12-08T00:59:45.112Z,13.67
2022-12-08T01:02:12.221Z,14.87
2022-12-08T01:04:39.222Z,15.87
2022-12-08T01:07:06.025Z,15.10
2022-12-08T01:09:33.125Z,15.33
2022-12-08T01:12:00.303Z,15.10
2022-12-08T01:14:27.124Z,15.03
2022-12-08T01:16:53.967Z,14.63
2022-12-08T01:19:21.177Z,15.03
2022-12-08T01:21:48.056Z,16.00
2022-12-08T01:24:18.130Z,14.93
2022-12-08T01:26:45.216Z,14.60
2022-12-08T01:29:12.385Z,16.63
2022-12-08T01:31:39.676Z,15.20
2022-12-08T01:34:07.531Z,16.70
2022-12-08T01:36:38.466Z,15.83
2022-12-08T01:39:08.585Z,17.67
2022-12-08T01:41:37.941Z,17.40
2022-12-08T01:44:10.856Z,16.87
2022-12-08T01:46:39.612Z,17.50
2022-12-08T01:49:29.477Z,17.00
2022-12-08T01:52:01.923Z,16.73
2022-12-08T01:54:33.591Z,16.20
2022-12-08T01:57:03.651Z,17.30
2022-12-08T01:59:32.957Z,17.77
2022-12-08T02:02:00.130Z,17.37
2022-12-08T02:04:26.955Z,15.50
2022-12-08T02:06:54.648Z,16.50
2022-12-08T02:09:21.811Z,16.00
2022-12-08T02:11:58.484Z,15.27
2022-12-08T02:14:25.561Z,17.50
2022-12-08T02:17:00.247Z,15.40
2022-12-08T02:19:48.476Z,17.67
2022-12-08T02:22:38.378Z,17.00
2022-12-08T02:25:24.845Z,16.17
2022-12-08T02:28:21.052Z,17.13
2022-12-08T02:30:58.258Z,17.63
2022-12-08T02:33:25.388Z,18.63
2022-12-08T02:36:07.414Z,19.47
2022-12-08T02:38:59.966Z,18.33
2022-12-08T02:41:49.196Z,17.63
2022-12-08T02:44:20.971Z,18.27
2022-12-08T02:46:53.522Z,18.10
2022-12-08T02:49:20.684Z,17.83
2022-12-08T02:51:47.858Z,16.77
2022-12-08T02:54:15.370Z,17.17
2022-12-08T02:56:44.906Z,16.33
2022-12-08T02:59:11.571Z,16.73
2022-12-08T03:01:59.047Z,16.40
2022-12-08T03:04:28.929Z,14.63
2022-12-08T03:07:23.941Z,15.73
2022-12-08T03:09:54.396Z,15.30
2022-12-08T03:12:49.716Z,16.50
2022-12-08T03:15:19.682Z,15.60
2022-12-08T03:17:52.621Z,15.90
2022-12-08T03:20:23.257Z,15.23
2022-12-08T03:22:52.563Z,15.97
2022-12-08T03:25:22.539Z,16.63
2022-12-08T03:27:50.800Z,15.10
2022-12-08T03:30:18.219Z,14.73
2022-12-08T03:32:53.108Z,15.33
2022-12-08T03:35:31.232Z,13.53
2022-12-08T03:38:16.389Z,13.93
2022-12-08T03:40:44.471Z,13.63
2022-12-08T03:43:11.625Z,14.17
2022-12-08T03:45:38.343Z,15.43
2022-12-08T03:48:05.232Z,15.07
2022-12-08T03:50:31.992Z,14.50
2022-12-08T03:52:59.156Z,13.70
2022-12-08T03:55:25.900Z,12.93
2022-12-08T03:57:53.027Z,11.90
2022-12-08T04:00:19.934Z,13.83
2022-12-08T04:02:47.186Z,12.80
2022-12-08T04:05:14.365Z,13.60
2022-12-08T04:07:41.563Z,13.73
2022-12-08T04:10:08.985Z,13.20
2022-12-08T04:12:35.722Z,12.93
2022-12-08T04:15:02.871Z,14.30
2022-12-08T04:17:30.001Z,16.27
2022-12-08T04:19:56.811Z,13.93
2022-12-08T04:22:23.514Z,12.37
2022-12-08T04:24:50.459Z,13.53
2022-12-08T04:27:17.578Z,14.00
2022-12-08T04:29:44.312Z,13.63
2022-12-08T04:32:11.064Z,12.60
2022-12-08T04:34:37.831Z,13.97
2022-12-08T04:37:04.618Z,14.30
2022-12-08T04:39:31.808Z,15.27
2022-12-08T04:41:58.580Z,14.03
2022-12-08T04:44:25.675Z,14.53
2022-12-08T04:46:52.545Z,13.13
2022-12-08T04:49:19.751Z,13.80
2022-12-08T04:51:46.551Z,11.93
2022-12-08T04:54:13.740Z,10.70
2022-12-08T04:56:40.432Z,11.33
2022-12-08T04:59:07.570Z,11.20
2022-12-08T05:01:34.815Z,10.40
2022-12-08T05:04:01.664Z,11.00
2022-12-08T05:06:28.436Z,12.47
2022-12-08T05:08:55.165Z,12.60
2022-12-08T05:11:21.900Z,12.97
2022-12-08T05:13:49.058Z,12.70
2022-12-08T05:16:16.152Z,13.27
2022-12-08T05:18:43.691Z,14.60
2022-12-08T05:21:10.953Z,12.47
2022-12-08T05:23:37.842Z,14.33
2022-12-08T05:26:04.715Z,15.10
2022-12-08T05:28:41.246Z,15.00
2022-12-08T05:31:09.913Z,14.60
2022-12-08T05:33:36.714Z,16.47
2022-12-08T05:36:03.637Z,16.07
2022-12-08T05:38:30.343Z,16.57
2022-12-08T05:40:57.446Z,16.30
2022-12-08T05:43:24.273Z,16.27
2022-12-08T05:45:51.126Z,16.53
2022-12-08T05:48:18.355Z,16.70
2022-12-08T05:50:49.238Z,15.97
2022-12-08T05:53:17.788Z,15.50
2022-12-08T05:55:44.826Z,16.60
2022-12-08T05:58:17.115Z,16.53
2022-12-08T06:00:45.025Z,15.57
2022-12-08T06:03:12.697Z,14.20
2022-12-08T06:05:41.061Z,16.33
2022-12-08T06:08:08.306Z,16.47
2022-12-08T06:10:35.562Z,15.83
2022-12-08T06:13:02.690Z,16.27
2022-12-08T06:15:29.797Z,16.00
2022-12-08T06:17:56.657Z,15.80
2022-12-08T06:20:23.383Z,15.97
2022-12-08T06:22:50.504Z,16.53
2022-12-08T06:25:17.448Z,15.80
2022-12-08T06:27:44.569Z,16.30
2022-12-08T06:30:11.526Z,14.17
2022-12-08T06:32:38.735Z,14.10
2022-12-08T06:35:06.121Z,14.70
2022-12-08T06:37:33.233Z,9.27
2022-12-08T06:40:00.364Z,15.00
2022-12-08T06:42:46.894Z,15.40
2022-12-08T06:45:15.777Z,14.80
2022-12-08T06:47:42.522Z,15.10
2022-12-08T06:50:10.843Z,15.63
2022-12-08T06:52:47.333Z,16.13
2022-12-08T06:55:42.393Z,15.40
2022-12-08T06:58:07.316Z,17.43
2022-12-08T07:00:34.792Z,16.50
2022-12-08T07:03:11.730Z,17.30
2022-12-08T07:05:41.042Z,16.43
2022-12-08T07:08:11.729Z,16.73
2022-12-08T07:10:39.172Z,15.93
2022-12-08T07:13:06.403Z,17.70
2022-12-08T07:15:33.548Z,18.30
2022-12-08T07:18:00.891Z,15.57
2022-12-08T07:20:33.975Z,16.77
2022-12-08T07:23:01.218Z,17.17
2022-12-08T07:25:28.397Z,18.30
2022-12-08T07:27:55.286Z,17.93
2022-12-08T07:30:28.129Z,17.20
2022-12-08T07:32:54.897Z,18.00
2022-12-08T07:35:23.021Z,16.50
2022-12-08T07:37:55.077Z,17.00
2022-12-08T07:40:21.987Z,15.90
2022-12-08T07:42:48.842Z,15.33
2022-12-08T07:45:15.606Z,16.57
2022-12-08T07:47:42.427Z,15.50
2022-12-08T07:50:09.310Z,15.80
2022-12-08T07:52:36.493Z,15.30
2022-12-08T07:55:03.640Z,14.23
2022-12-08T07:57:32.665Z,14.47
2022-12-08T08:00:04.023Z,14.20
2022-12-08T08:02:31.684Z,14.37
2022-12-08T08:04:59.086Z,14.47
2022-12-08T08:07:40.278Z,11.93
2022-12-08T08:10:08.087Z,12.87
2022-12-08T08:12:35.590Z,13.60
2022-12-08T08:15:02.502Z,12.50
2022-12-08T08:17:30.172Z,12.60
2022-12-08T08:19:57.509Z,12.07
2022-12-08T08:22:28.085Z,12.40
2022-12-08T08:24:55.052Z,13.37
2022-12-08T08:27:22.563Z,13.40
2022-12-08T08:29:49.323Z,13.13
2022-12-08T08:32:16.031Z,13.97
2022-12-08T08:34:43.192Z,13.83
2022-12-08T08:37:19.710Z,13.60
2022-12-08T08:39:46.542Z,14.07
2022-12-08T08:42:21.046Z,14.30
2022-12-08T08:44:47.920Z,13.40
2022-12-08T08:47:15.314Z,13.20
2022-12-08T08:49:42.257Z,13.63
2022-12-08T08:52:11.812Z,14.43
2022-12-08T08:54:38.940Z,15.40
2022-12-08T08:57:06.179Z,13.30
2022-12-08T08:59:33.332Z,13.57
2022-12-08T09:02:00.219Z,14.30
2022-12-08T09:04:27.126Z,14.40
2022-12-08T09:06:54.316Z,14.30
2022-12-08T09:09:21.669Z,14.20
2022-12-08T09:11:48.431Z,14.00
2022-12-08T09:14:15.565Z,12.60
2022-12-08T09:16:43.106Z,14.00
2022-12-08T09:19:10.494Z,13.77
2022-12-08T09:21:37.239Z,13.90
2022-12-08T09:24:04.404Z,14.40
2022-12-08T09:26:31.181Z,12.50
2022-12-08T09:29:01.242Z,12.43
2022-12-08T09:31:31.149Z,12.60
2022-12-08T09:34:00.395Z,13.40
2022-12-08T09:36:27.378Z,13.50
2022-12-08T09:38:54.857Z,13.57
2022-12-08T09:41:49.854Z,12.20
2022-12-08T09:44:42.068Z,11.53
2022-12-08T09:47:55.236Z,10.57
2022-12-08T09:50:34.077Z,9.90
2022-12-08T09:53:12.773Z,10.33
2022-12-08T09:55:45.233Z,9.80
2022-12-08T09:58:25.408Z,11.00
2022-12-08T10:00:52.450Z,10.33
2022-12-08T10:03:21.354Z,10.20
2022-12-08T10:05:58.771Z,9.50
2022-12-08T10:08:34.778Z,9.87
2022-12-08T10:11:10.764Z,9.50
2022-12-08T10:13:59.850Z,10.83
2022-12-08T10:16:41.098Z,9.80
2022-12-08T10:19:24.718Z,8.90
2022-12-08T10:21:52.888Z,8.80
2022-12-08T10:24:26.140Z,9.10
2022-12-08T10:26:55.003Z,8.80
2022-12-08T10:29:21.765Z,9.33
2022-12-08T10:31:48.633Z,9.20
2022-12-08T10:34:23.201Z,9.27
2022-12-08T10:36:59.404Z,10.00
2022-12-08T10:39:45.619Z,8.93
2022-12-08T10:42:22.008Z,8.33
2022-12-08T10:44:57.732Z,9.40
2022-12-08T10:47:27.419Z,9.70
2022-12-08T10:50:13.030Z,8.57
2022-12-08T10:52:41.104Z,9.93
2022-12-08T10:55:18.866Z,8.57
2022-12-08T10:57:51.749Z,8.63
2022-12-08T11:00:27.159Z,9.57
2022-12-08T11:03:13.799Z,9.40
2022-12-08T11:05:42.162Z,8.57
2022-12-08T11:08:09.179Z,10.37
2022-12-08T11:10:43.833Z,9.27
2022-12-08T11:13:26.287Z,8.97
2022-12-08T11:15:56.993Z,10.23
2022-12-08T11:18:29.507Z,9.00
2022-12-08T11:21:10.153Z,9.20
2022-12-08T11:23:37.773Z,9.20
2022-12-08T11:26:28.280Z,9.33
2022-12-08T11:28:55.644Z,9.30
2022-12-08T11:31:33.227Z,8.57
2022-12-08T11:34:05.167Z,8.50
2022-12-08T11:36:39.723Z,8.10
2022-12-08T11:39:10.667Z,10.10
2022-12-08T11:41:40.929Z,9.23
2022-12-08T11:44:38.351Z,8.90
2022-12-08T11:47:20.448Z,8.07
2022-12-08T11:49:56.771Z,8.60
2022-12-08T11:52:51.107Z,7.60
2022-12-08T11:55:38.785Z,8.07
2022-12-08T11:58:23.976Z,7.97
2022-12-08T12:00:50.859Z,7.73
2022-12-08T12:03:29.670Z,8.03
2022-12-08T12:06:53.224Z,8.37
2022-12-08T12:09:40.489Z,7.53
2022-12-08T12:12:27.529Z,7.57
2022-12-08T12:15:04.712Z,8.10
2022-12-08T12:17:46.911Z,8.03
2022-12-08T12:20:35.216Z,7.60
2022-12-08T12:23:07.781Z,6.70
2022-12-08T12:25:36.895Z,7.50
2022-12-08T12:28:12.459Z,6.67
2022-12-08T12:31:05.483Z,6.13
2022-12-08T12:33:35.957Z,7.57
2022-12-08T12:36:16.539Z,7.57
2022-12-08T12:39:04.164Z,7.50
2022-12-08T12:41:46.535Z,7.30
2022-12-08T12:44:13.697Z,7.07
2022-12-08T12:46:41.016Z,7.30
2022-12-08T12:49:39.381Z,8.20
2022-12-08T12:52:23.433Z,8.47
2022-12-08T12:54:50.149Z,8.43
2022-12-08T12:57:25.541Z,9.50
2022-12-08T12:59:56.237Z,7.80
2022-12-08T13:02:23.488Z,7.80
2022-12-08T13:05:09.299Z,7.70
2022-12-08T13:07:49.719Z,7.03
2022-12-08T13:10:19.378Z,5.93
2022-12-08T13:13:01.142Z,6.03
2022-12-08T13:15:38.327Z,7.53
2022-12-08T13:18:07.496Z,5.57
2022-12-08T13:20:46.072Z,5.60
2022-12-08T13:23:31.636Z,5.60
2022-12-08T13:26:16.053Z,5.00
2022-12-08T13:29:01.471Z,4.60
2022-12-08T13:31:54.059Z,4.43
2022-12-08T13:34:41.289Z,4.37
2022-12-08T13:37:10.993Z,4.60
2022-12-08T13:39:40.645Z,4.47
2022-12-08T13:42:19.320Z,4.97
2022-12-08T13:45:24.073Z,4.70
2022-12-08T13:49:03.372Z,4.87
2022-12-08T13:57:07.120Z,4.53
2022-12-08T13:59:43.983Z,4.63
2022-12-08T14:02:20.961Z,5.50
2022-12-08T14:05:16.908Z,5.83
2022-12-08T14:07:35.146Z,6.20
2022-12-08T14:10:03.712Z,5.87
2022-12-08T14:12:31.492Z,5.87
2022-12-08T14:15:05.102Z,6.23
2022-12-08T14:17:33.054Z,6.30
2022-12-08T14:20:06.746Z,6.50
2022-12-08T14:22:36.044Z,7.13
2022-12-08T14:25:03.590Z,5.40
2022-12-08T14:27:34.756Z,5.50
2022-12-08T14:30:15.932Z,6.73
2022-12-08T14:32:49.573Z,6.53
2022-12-08T14:35:25.216Z,6.87
2022-12-08T14:37:56.531Z,6.20
2022-12-08T14:40:23.800Z,6.63
2022-12-08T14:43:05.666Z,6.60
2022-12-08T14:45:35.701Z,6.83
2022-12-08T14:48:23.740Z,7.30
2022-12-08T14:51:07.892Z,7.47
2022-12-08T14:53:56.016Z,7.63
2022-12-08T14:56:23.312Z,7.75
2022-12-08T14:59:10.100Z,7.17
2022-12-08T15:01:37.926Z,6.73
2022-12-08T15:04:14.140Z,8.33
2022-12-08T15:06:49.994Z,7.63
2022-12-08T15:09:28.980Z,9.10
2022-12-08T15:12:27.547Z,6.83
2022-12-08T15:15:16.535Z,7.53
2022-12-08T15:17:51.634Z,7.30
2022-12-08T15:20:43.922Z,8.60
2022-12-08T15:23:20.048Z,7.63
2022-12-08T15:25:46.959Z,8.13
2022-12-08T15:28:15.685Z,9.00
2022-12-08T15:30:42.813Z,8.30
2022-12-08T15:33:10.004Z,9.17
2022-12-08T15:35:40.676Z,8.07
2022-12-08T15:38:20.613Z,9.30
2022-12-08T15:40:47.486Z,10.00
2022-12-08T15:43:14.604Z,8.53
2022-12-08T15:45:51.804Z,8.37
2022-12-08T15:48:27.451Z,9.00
2022-12-08T15:50:55.359Z,8.90
2022-12-08T15:53:22.490Z,10.97
2022-12-08T15:56:19.089Z,10.33
2022-12-08T15:58:55.109Z,9.53
2022-12-08T16:01:22.859Z,9.70
2022-12-08T16:07:19.745Z,9.70
2022-12-08T16:09:40.270Z,10.40
2022-12-08T16:15:51.744Z,10.50
2022-12-08T16:18:24.013Z,10.23
2022-12-08T16:21:16.628Z,12.87
2022-12-08T16:23:45.653Z,13.17
2022-12-08T16:27:13.905Z,17.97
2022-12-08T16:29:11.147Z,20.97
2022-12-08T16:31:38.376Z,19.67
2022-12-08T16:34:05.553Z,20.43
2022-12-08T16:36:32.377Z,20.37
2022-12-08T16:38:59.565Z,19.93
2022-12-08T16:41:45.318Z,17.70
2022-12-08T16:44:12.492Z,20.83
2022-12-08T16:46:39.795Z,19.80
2022-12-08T16:49:08.872Z,19.47
2022-12-08T16:51:35.677Z,19.57
2022-12-08T16:54:07.184Z,17.90
2022-12-08T16:56:34.344Z,16.93
2022-12-08T16:59:02.203Z,17.57
2022-12-08T17:01:29.686Z,15.53
2022-12-08T17:04:29.299Z,15.27
2022-12-08T17:06:43.855Z,15.27
2022-12-08T17:09:11.064Z,14.80
2022-12-08T17:11:42.987Z,13.23
2022-12-08T17:14:11.137Z,15.77
2022-12-08T17:16:38.333Z,17.13
2022-12-08T17:19:05.644Z,20.43
2022-12-08T17:21:32.873Z,19.87
2022-12-08T17:23:59.638Z,26.73
2022-12-08T17:26:26.400Z,16.97
2022-12-08T17:29:01.527Z,15.70
2022-12-08T17:31:30.857Z,15.53
2022-12-08T17:34:00.203Z,14.63
2022-12-08T17:36:27.223Z,14.20
2022-12-08T17:38:54.631Z,13.40
2022-12-08T17:41:21.775Z,13.23
2022-12-08T17:43:48.906Z,13.70
2022-12-08T17:46:19.948Z,13.30
2022-12-08T17:48:47.374Z,16.23
2022-12-08T17:51:14.613Z,15.07
2022-12-08T17:53:41.752Z,15.40
2022-12-08T17:56:19.296Z,14.40
2022-12-08T17:58:51.289Z,15.60
2022-12-08T18:01:21.519Z,17.40
2022-12-08T18:03:48.408Z,18.00
2022-12-08T18:06:17.471Z,18.50
2022-12-08T18:08:44.633Z,17.67
2022-12-08T18:11:14.258Z,18.80
2022-12-08T18:13:41.144Z,16.07
2022-12-08T18:16:08.333Z,16.30
2022-12-08T18:18:35.120Z,16.87
2022-12-08T18:21:02.281Z,17.57
2022-12-08T18:23:29.206Z,17.60
2022-12-08T18:25:56.406Z,19.00
2022-12-08T18:28:24.028Z,20.87
2022-12-08T18:30:51.150Z,19.50
2022-12-08T18:33:18.488Z,17.90
2022-12-08T18:35:45.636Z,15.87
2022-12-08T18:38:12.791Z,16.23
2022-12-08T18:40:39.726Z,15.97
2022-12-08T18:43:06.654Z,15.80
2022-12-08T18:45:33.901Z,19.60
2022-12-08T18:48:01.078Z,18.50
2022-12-08T18:50:27.869Z,18.27
2022-12-08T18:52:54.707Z,18.60
2022-12-08T18:55:21.522Z,18.87
2022-12-08T18:57:48.437Z,17.90
2022-12-08T19:00:17.288Z,19.03
2022-12-08T19:02:44.869Z,18.97
2022-12-08T19:05:13.653Z,23.53
2022-12-08T19:07:42.682Z,23.07
2022-12-08T19:10:10.528Z,21.47
2022-12-08T19:12:37.619Z,22.87
2022-12-08T19:15:05.285Z,21.60
2022-12-08T19:17:32.886Z,22.40
2022-12-08T19:20:00.166Z,23.13
2022-12-08T19:22:26.971Z,22.17
2022-12-08T19:24:54.152Z,23.20
2022-12-08T19:27:21.489Z,24.70
2022-12-08T19:29:48.672Z,24.13
2022-12-08T19:32:15.825Z,24.83
2022-12-08T19:34:42.847Z,25.60
2022-12-08T19:37:12.567Z,27.13
2022-12-08T19:39:58.655Z,27.27
2022-12-08T19:42:44.635Z,27.50
2022-12-08T19:45:17.583Z,64.10
2022-12-08T19:47:44.583Z,57.17
2022-12-08T19:50:32.664Z,28.73
2022-12-08T19:53:00.156Z,25.70
2022-12-08T19:55:27.230Z,28.20
2022-12-08T19:57:54.621Z,28.53
2022-12-08T20:00:21.539Z,28.50
2022-12-08T20:02:48.915Z,28.73
2022-12-08T20:05:16.194Z,26.13
2022-12-08T20:07:43.191Z,28.13
2022-12-08T20:10:19.645Z,26.50
2022-12-08T20:12:46.804Z,25.50
2022-12-08T20:15:14.848Z,24.90
2022-12-08T20:17:42.969Z,24.80
2022-12-08T20:20:10.516Z,25.80
2022-12-08T20:22:37.953Z,21.70
2022-12-08T20:25:05.040Z,18.73
2022-12-08T20:27:32.189Z,16.80
2022-12-08T20:29:58.909Z,15.73
2022-12-08T20:32:26.159Z,15.10
2022-12-08T20:34:53.410Z,17.60
2022-12-08T20:37:20.196Z,15.13
2022-12-08T20:39:46.981Z,16.13
2022-12-08T20:42:13.981Z,16.00
2022-12-08T20:44:44.524Z,15.00
2022-12-08T20:47:13.067Z,14.90
2022-12-08T20:49:39.998Z,13.80
2022-12-08T20:52:07.354Z,12.60
2022-12-08T20:54:35.230Z,14.17
2022-12-08T20:57:02.145Z,17.90
2022-12-08T20:59:29.595Z,16.90
2022-12-08T21:01:56.458Z,14.87
2022-12-08T21:04:24.001Z,15.77
2022-12-08T21:06:51.327Z,15.43
2022-12-08T21:09:18.363Z,15.13
2022-12-08T21:11:45.683Z,15.50
2022-12-08T21:14:12.682Z,14.77
2022-12-08T21:16:39.934Z,16.53
2022-12-08T21:19:06.995Z,16.23
2022-12-08T21:21:34.311Z,16.90
2022-12-08T21:24:02.157Z,16.33
2022-12-08T21:26:29.117Z,15.37
2022-12-08T21:28:58.924Z,16.40
2022-12-08T21:31:26.983Z,17.77
2022-12-08T21:33:55.245Z,17.47
2022-12-08T21:36:22.635Z,18.20
2022-12-08T21:38:50.094Z,18.07
2022-12-08T21:41:40.834Z,16.73
2022-12-08T21:44:10.339Z,16.57
2022-12-08T21:46:37.659Z,16.17
2022-12-08T21:49:05.104Z,15.70
2022-12-08T21:51:33.890Z,15.83
2022-12-08T21:54:01.124Z,15.63
2022-12-08T21:56:28.542Z,17.53
2022-12-08T21:58:55.577Z,17.77
2022-12-08T22:01:22.811Z,17.33
2022-12-08T22:03:50.092Z,18.10
2022-12-08T22:06:17.046Z,18.13
2022-12-08T22:08:44.015Z,19.70
2022-12-08T22:11:11.752Z,17.97
2022-12-08T22:13:40.881Z,18.10
2022-12-08T22:16:10.572Z,19.03
2022-12-08T22:18:37.877Z,18.47
2022-12-08T22:21:12.411Z,18.00
2022-12-08T22:23:39.301Z,17.17
2022-12-08T22:26:07.093Z,18.00
2022-12-08T22:28:36.630Z,18.70
2022-12-08T22:31:16.670Z,18.70
2022-12-08T22:33:44.303Z,18.80
2022-12-08T22:36:23.346Z,18.33
2022-12-08T22:38:50.994Z,19.40
2022-12-08T22:41:18.487Z,17.37
2022-12-08T22:43:46.271Z,18.87
2022-12-08T22:46:24.338Z,19.40
2022-12-08T22:48:52.588Z,20.70
2022-12-08T22:51:19.958Z,20.10
2022-12-08T22:53:47.544Z,20.77
2022-12-08T22:56:16.055Z,22.03
2022-12-08T22:58:44.166Z,20.37
2022-12-08T23:01:26.230Z,21.83
2022-12-08T23:03:53.517Z,22.40
2022-12-08T23:06:20.501Z,25.80
2022-12-08T23:08:47.457Z,22.20
2022-12-08T23:11:15.799Z,21.57
2022-12-08T23:13:42.908Z,22.37
2022-12-08T23:16:11.217Z,24.30
2022-12-08T23:18:41.644Z,23.70
2022-12-08T23:21:11.278Z,23.73
2022-12-08T23:23:38.580Z,23.37
2022-12-08T23:26:14.713Z,24.60
2022-12-08T23:28:41.578Z,25.87
2022-12-08T23:31:09.334Z,26.93
2022-12-08T23:33:36.350Z,26.63
2022-12-08T23:36:03.161Z,27.17
2022-12-08T23:38:30.047Z,27.30
2022-12-08T23:41:02.077Z,27.00
2022-12-08T23:43:29.478Z,32.57
2022-12-08T23:45:56.638Z,28.20
2022-12-08T23:48:23.783Z,27.50
2022-12-08T23:50:50.687Z,26.53
2022-12-08T23:53:17.525Z,24.80
2022-12-08T23:55:44.451Z,27.70
2022-12-08T23:58:11.964Z,40.13
